createdAt,value
2019-05-28T00:00:55.613Z,16.33
2019-05-28T00:03:29.519Z,16.31
2019-05-28T00:06:02.200Z,16.21
2019-05-28T00:08:34.879Z,16.24
2019-05-28T00:11:07.457Z,16.24
2019-05-28T00:13:40.242Z,16.27
2019-05-28T00:16:12.687Z,16.26
2019-05-28T00:18:44.952Z,16.23
2019-05-28T00:21:17.562Z,16.19
2019-05-28T00:23:51.272Z,16.16
2019-05-28T00:26:23.999Z,16.12
2019-05-28T00:28:56.619Z,16.13
2019-05-28T00:31:29.302Z,16.14
2019-05-28T00:34:01.992Z,16.18
2019-05-28T00:36:34.656Z,16.19
2019-05-28T00:39:09.290Z,16.23
2019-05-28T00:41:41.979Z,16.23
2019-05-28T00:44:15.664Z,16.24
2019-05-28T00:46:48.395Z,16.25
2019-05-28T00:49:21.031Z,16.25
2019-05-28T00:51:53.815Z,16.24
2019-05-28T00:54:26.494Z,16.21
2019-05-28T00:56:59.994Z,16.20
2019-05-28T00:59:33.786Z,16.25
2019-05-28T01:02:06.771Z,16.25
2019-05-28T01:04:40.475Z,16.28
2019-05-28T01:07:14.291Z,16.26
2019-05-28T01:09:46.960Z,16.25
2019-05-28T01:12:19.649Z,16.25
2019-05-28T01:14:52.422Z,16.20
2019-05-28T01:17:26.448Z,16.15
2019-05-28T01:19:59.022Z,16.11
2019-05-28T01:22:31.696Z,16.03
2019-05-28T01:25:06.531Z,15.97
2019-05-28T01:27:40.263Z,15.88
2019-05-28T01:30:13.212Z,15.81
2019-05-28T01:32:47.870Z,15.79
2019-05-28T01:35:20.216Z,15.76
2019-05-28T01:37:53.100Z,15.71
2019-05-28T01:40:25.797Z,15.72
2019-05-28T01:42:59.066Z,15.71
2019-05-28T01:45:31.767Z,15.67
2019-05-28T01:48:05.166Z,15.62
2019-05-28T01:50:37.838Z,15.62
2019-05-28T01:53:10.141Z,15.60
2019-05-28T01:55:42.783Z,15.61
2019-05-28T01:58:15.451Z,15.57
2019-05-28T02:00:48.588Z,15.60
2019-05-28T02:03:21.227Z,15.56
2019-05-28T02:05:53.904Z,15.53
2019-05-28T02:08:26.572Z,15.49
2019-05-28T02:10:59.257Z,15.47
2019-05-28T02:13:32.138Z,15.52
2019-05-28T02:16:04.820Z,15.55
2019-05-28T02:18:37.127Z,15.59
2019-05-28T02:21:09.369Z,15.57
2019-05-28T02:23:42.038Z,15.58
2019-05-28T02:26:14.717Z,15.61
2019-05-28T02:28:47.396Z,15.66
2019-05-28T02:31:27.782Z,15.66
2019-05-28T02:33:54.351Z,15.70
2019-05-28T02:36:27.072Z,15.74
2019-05-28T02:38:59.806Z,15.76
2019-05-28T02:41:32.427Z,15.78
2019-05-28T02:44:05.673Z,15.80
2019-05-28T02:46:37.895Z,15.82
2019-05-28T02:49:10.572Z,15.83
2019-05-28T02:51:44.593Z,15.89
2019-05-28T02:54:17.367Z,15.92
2019-05-28T02:56:51.672Z,15.98
2019-05-28T02:59:26.107Z,15.99
2019-05-28T03:02:00.314Z,16.00
2019-05-28T03:04:33.472Z,15.98
2019-05-28T03:07:06.489Z,15.97
2019-05-28T03:09:41.630Z,16.04
2019-05-28T03:12:14.306Z,16.07
2019-05-28T03:14:47.036Z,16.11
2019-05-28T03:17:21.196Z,16.14
2019-05-28T03:19:54.597Z,16.11
2019-05-28T03:22:27.578Z,16.09
2019-05-28T03:25:01.487Z,16.08
2019-05-28T03:27:34.583Z,16.04
2019-05-28T03:30:11.020Z,16.03
2019-05-28T03:32:43.628Z,16.06
2019-05-28T03:35:16.403Z,16.10
2019-05-28T03:37:49.083Z,16.16
2019-05-28T03:40:43.064Z,16.17
2019-05-28T03:43:17.690Z,16.23
2019-05-28T03:45:50.698Z,16.28
2019-05-28T03:48:23.354Z,16.33
2019-05-28T03:50:56.341Z,16.33
2019-05-28T03:53:29.020Z,16.31
2019-05-28T03:56:01.732Z,16.34
2019-05-28T03:58:34.378Z,16.38
2019-05-28T04:01:07.161Z,16.36
2019-05-28T04:03:39.843Z,16.36
2019-05-28T04:06:12.525Z,16.37
2019-05-28T04:08:45.089Z,16.39
2019-05-28T04:11:17.775Z,16.42
2019-05-28T04:13:50.412Z,16.39
2019-05-28T04:16:23.132Z,16.39
2019-05-28T04:18:55.812Z,16.39
2019-05-28T04:21:28.496Z,16.40
2019-05-28T04:24:01.170Z,16.39
2019-05-28T04:26:34.167Z,16.43
2019-05-28T04:29:06.501Z,16.48
2019-05-28T04:31:39.216Z,16.51
2019-05-28T04:34:12.190Z,16.54
2019-05-28T04:36:44.474Z,16.49
2019-05-28T04:39:17.073Z,16.47
2019-05-28T04:41:49.720Z,16.50
2019-05-28T04:44:22.394Z,16.50
2019-05-28T04:46:55.086Z,16.56
2019-05-28T04:49:27.763Z,16.59
2019-05-28T04:52:00.471Z,16.62
2019-05-28T04:54:33.121Z,16.61
2019-05-28T04:57:05.801Z,16.61
2019-05-28T04:59:38.464Z,16.70
2019-05-28T05:02:11.359Z,16.72
2019-05-28T05:04:45.075Z,16.79
2019-05-28T05:07:17.751Z,16.76
2019-05-28T05:09:49.991Z,16.84
2019-05-28T05:12:22.570Z,16.87
2019-05-28T05:14:55.274Z,16.94
2019-05-28T05:17:27.968Z,16.93
2019-05-28T05:20:00.626Z,17.03
2019-05-28T05:22:33.298Z,17.09
2019-05-28T05:25:08.331Z,17.09
2019-05-28T05:27:42.358Z,17.06
2019-05-28T05:30:16.260Z,17.07
2019-05-28T05:32:51.198Z,17.09
2019-05-28T05:35:23.909Z,17.06
2019-05-28T05:37:56.650Z,17.14
2019-05-28T05:40:29.434Z,17.17
2019-05-28T05:43:02.305Z,17.30
2019-05-28T05:45:35.297Z,17.32
2019-05-28T05:48:09.155Z,17.37
2019-05-28T05:50:45.066Z,17.47
2019-05-28T05:53:16.517Z,17.58
2019-05-28T05:55:49.194Z,17.67
2019-05-28T05:58:21.469Z,17.80
2019-05-28T06:00:54.191Z,17.93
2019-05-28T06:03:39.834Z,17.90
2019-05-28T06:06:02.884Z,17.88
2019-05-28T06:08:37.178Z,18.01
2019-05-28T06:11:09.972Z,18.06
2019-05-28T06:13:42.647Z,18.17
2019-05-28T06:16:15.340Z,18.13
2019-05-28T06:18:47.619Z,18.26
2019-05-28T06:21:20.480Z,18.25
2019-05-28T06:23:53.181Z,18.32
2019-05-28T06:26:25.418Z,18.36
2019-05-28T06:28:58.114Z,18.34
2019-05-28T06:31:30.817Z,18.34
2019-05-28T06:34:03.486Z,18.28
2019-05-28T06:36:35.730Z,18.31
2019-05-28T06:39:09.518Z,18.32
2019-05-28T06:41:42.125Z,18.34
2019-05-28T06:44:14.806Z,18.25
2019-05-28T06:46:47.475Z,18.41
2019-05-28T06:49:20.258Z,18.43
2019-05-28T06:51:52.946Z,18.25
2019-05-28T06:54:25.650Z,18.27
2019-05-28T06:56:57.857Z,18.15
2019-05-28T06:59:30.468Z,18.23
2019-05-28T07:02:03.259Z,18.03
2019-05-28T07:04:35.930Z,18.07
2019-05-28T07:07:08.601Z,18.06
2019-05-28T07:09:42.315Z,17.95
2019-05-28T07:12:17.886Z,18.08
2019-05-28T07:14:49.531Z,18.25
2019-05-28T07:17:22.496Z,18.11
2019-05-28T07:19:55.190Z,17.91
2019-05-28T07:22:27.864Z,17.56
2019-05-28T07:25:00.547Z,17.39
2019-05-28T07:27:33.217Z,17.35
2019-05-28T07:30:08.866Z,17.26
2019-05-28T07:32:41.451Z,17.33
2019-05-28T07:35:14.733Z,17.48
2019-05-28T07:37:47.424Z,17.58
2019-05-28T07:40:31.282Z,17.73
2019-05-28T07:42:55.133Z,18.06
2019-05-28T07:45:27.817Z,18.12
2019-05-28T07:48:00.602Z,18.13
2019-05-28T07:50:33.264Z,18.03
2019-05-28T07:53:05.964Z,17.91
2019-05-28T07:55:38.636Z,17.81
2019-05-28T07:58:11.319Z,17.83
2019-05-28T08:00:45.112Z,17.75
2019-05-28T08:03:17.806Z,17.64
2019-05-28T08:05:50.479Z,17.46
2019-05-28T08:08:25.307Z,17.56
2019-05-28T08:10:57.972Z,17.52
2019-05-28T08:13:40.096Z,17.53
2019-05-28T08:16:18.191Z,17.45
2019-05-28T08:18:40.522Z,17.40
2019-05-28T08:21:13.205Z,17.48
2019-05-28T08:23:45.986Z,17.29
2019-05-28T08:26:18.665Z,17.23
2019-05-28T08:28:51.373Z,17.14
2019-05-28T08:31:24.126Z,17.18
2019-05-28T08:33:57.006Z,17.19
2019-05-28T08:36:29.891Z,17.27
2019-05-28T08:39:02.465Z,17.40
2019-05-28T08:41:37.588Z,17.40
2019-05-28T08:44:10.184Z,17.43
2019-05-28T08:46:42.851Z,17.49
2019-05-28T08:49:15.547Z,17.57
2019-05-28T08:51:48.526Z,17.47
2019-05-28T08:54:21.216Z,17.46
2019-05-28T08:56:53.505Z,17.51
2019-05-28T08:59:26.203Z,17.40
2019-05-28T09:01:58.934Z,17.58
2019-05-28T09:04:31.784Z,17.63
2019-05-28T09:07:05.625Z,17.70
2019-05-28T09:09:38.297Z,17.75
2019-05-28T09:12:10.989Z,17.67
2019-05-28T09:14:55.988Z,17.87
2019-05-28T09:17:18.084Z,17.88
2019-05-28T09:19:50.770Z,17.88
2019-05-28T09:22:26.224Z,18.05
2019-05-28T09:24:57.356Z,18.02
2019-05-28T09:27:31.164Z,18.20
2019-05-28T09:30:04.249Z,18.31
2019-05-28T09:32:36.534Z,18.31
2019-05-28T09:35:11.349Z,18.27
2019-05-28T09:37:43.930Z,18.34
2019-05-28T09:40:16.913Z,18.44
2019-05-28T09:42:50.004Z,18.48
2019-05-28T09:45:23.524Z,18.47
2019-05-28T09:47:56.388Z,18.49
2019-05-28T09:50:30.882Z,18.35
2019-05-28T09:53:03.071Z,18.23
2019-05-28T09:55:36.064Z,18.25
2019-05-28T09:58:16.892Z,18.34
2019-05-28T10:00:58.027Z,18.42
2019-05-28T10:03:24.953Z,18.36
2019-05-28T10:06:15.076Z,18.32
2019-05-28T10:08:32.263Z,18.41
2019-05-28T10:11:04.932Z,18.60
2019-05-28T10:13:39.861Z,18.57
2019-05-28T10:16:11.460Z,18.50
2019-05-28T10:18:43.997Z,18.53
2019-05-28T10:21:18.668Z,18.55
2019-05-28T10:23:50.893Z,18.44
2019-05-28T10:26:23.151Z,18.22
2019-05-28T10:28:56.044Z,17.93
2019-05-28T10:31:28.723Z,18.04
2019-05-28T10:34:01.438Z,18.15
2019-05-28T10:36:36.444Z,18.15
2019-05-28T10:39:10.245Z,18.14
2019-05-28T10:41:42.921Z,18.01
2019-05-28T10:44:15.498Z,17.85
2019-05-28T10:46:49.202Z,17.84
2019-05-28T10:49:22.089Z,17.93
2019-05-28T10:51:55.178Z,18.05
2019-05-28T10:54:27.421Z,18.13
2019-05-28T10:57:00.553Z,18.21
2019-05-28T10:59:32.774Z,18.13
2019-05-28T11:02:05.481Z,17.96
2019-05-28T11:04:38.182Z,17.85
2019-05-28T11:07:19.237Z,17.87
2019-05-28T11:09:51.702Z,17.74
2019-05-28T11:12:25.734Z,17.83
2019-05-28T11:14:58.403Z,17.84
2019-05-28T11:17:31.077Z,17.80
2019-05-28T11:20:04.793Z,17.75
2019-05-28T11:22:37.462Z,17.80
2019-05-28T11:25:11.485Z,17.92
2019-05-28T11:27:44.151Z,17.87
2019-05-28T11:30:19.306Z,17.82
2019-05-28T11:32:52.168Z,18.04
2019-05-28T11:35:25.566Z,18.35
2019-05-28T11:37:57.808Z,18.28
2019-05-28T11:40:30.316Z,18.47
2019-05-28T11:43:03.499Z,18.28
2019-05-28T11:45:36.496Z,18.18
2019-05-28T11:48:09.615Z,18.42
2019-05-28T11:50:42.356Z,18.41
2019-05-28T11:53:15.049Z,18.21
2019-05-28T11:55:47.926Z,18.09
2019-05-28T11:58:20.619Z,18.09
2019-05-28T12:00:53.177Z,18.20
2019-05-28T12:03:26.164Z,17.93
2019-05-28T12:05:59.099Z,17.62
2019-05-28T12:08:31.723Z,17.62
2019-05-28T12:11:04.304Z,17.71
2019-05-28T12:13:36.910Z,17.90
2019-05-28T12:16:09.241Z,17.93
2019-05-28T12:18:41.932Z,17.93
2019-05-28T12:21:14.509Z,17.93
2019-05-28T12:23:47.290Z,17.83
2019-05-28T12:26:21.406Z,18.00
2019-05-28T12:28:53.990Z,17.99
2019-05-28T12:31:26.389Z,17.87
2019-05-28T12:33:59.062Z,18.01
2019-05-28T12:36:31.920Z,17.90
2019-05-28T12:39:06.436Z,17.90
2019-05-28T12:41:39.121Z,17.66
2019-05-28T12:44:12.049Z,17.82
2019-05-28T12:46:44.586Z,17.76
2019-05-28T12:49:17.260Z,17.68
2019-05-28T12:51:49.837Z,17.82
2019-05-28T12:54:22.848Z,17.73
2019-05-28T12:56:55.498Z,17.68
2019-05-28T12:59:27.769Z,17.60
2019-05-28T13:02:00.344Z,17.57
2019-05-28T13:04:33.023Z,17.68
2019-05-28T13:07:05.753Z,17.59
2019-05-28T13:09:38.444Z,17.50
2019-05-28T13:12:11.061Z,17.38
2019-05-28T13:14:43.742Z,17.61
2019-05-28T13:17:16.315Z,17.73
2019-05-28T13:19:49.008Z,17.89
2019-05-28T13:22:21.576Z,17.82
2019-05-28T13:24:53.923Z,17.82
2019-05-28T13:27:26.620Z,17.78
2019-05-28T13:29:58.868Z,17.75
2019-05-28T13:32:31.472Z,17.83
2019-05-28T13:35:04.974Z,17.65
2019-05-28T13:37:37.555Z,17.29
2019-05-28T13:40:12.955Z,17.18
2019-05-28T13:42:45.670Z,17.17
2019-05-28T13:45:19.320Z,17.03
2019-05-28T13:47:51.959Z,17.19
2019-05-28T13:50:25.040Z,17.00
2019-05-28T13:52:58.943Z,16.95
2019-05-28T13:55:31.724Z,17.08
2019-05-28T13:58:04.322Z,16.97
2019-05-28T14:00:37.194Z,17.10
2019-05-28T14:03:10.410Z,17.17
2019-05-28T14:05:43.464Z,17.08
2019-05-28T14:08:15.673Z,17.03
2019-05-28T14:10:48.310Z,17.07
2019-05-28T14:13:20.890Z,17.07
2019-05-28T14:15:53.568Z,17.03
2019-05-28T14:18:27.067Z,17.04
2019-05-28T14:20:59.743Z,17.22
2019-05-28T14:23:32.696Z,17.25
2019-05-28T14:26:05.791Z,17.36
2019-05-28T14:28:38.395Z,17.36
2019-05-28T14:31:10.972Z,17.27
2019-05-28T14:33:43.651Z,17.36
2019-05-28T14:36:16.437Z,17.28
2019-05-28T14:39:02.426Z,17.11
2019-05-28T14:41:23.331Z,16.89
2019-05-28T14:43:56.008Z,16.74
2019-05-28T14:46:28.582Z,16.85
2019-05-28T14:49:01.264Z,17.04
2019-05-28T14:51:34.970Z,17.04
2019-05-28T14:54:07.598Z,16.96
2019-05-28T14:56:40.230Z,16.81
2019-05-28T14:59:12.906Z,16.80
2019-05-28T15:01:45.122Z,16.79
2019-05-28T15:04:18.857Z,16.68
2019-05-28T15:06:51.451Z,16.57
2019-05-28T15:09:24.133Z,16.58
2019-05-28T15:11:56.350Z,16.52
2019-05-28T15:14:29.077Z,16.50
2019-05-28T15:17:01.999Z,16.48
2019-05-28T15:19:34.855Z,16.35
2019-05-28T15:22:07.462Z,16.27
2019-05-28T15:24:40.716Z,16.28
2019-05-28T15:27:13.295Z,16.32
2019-05-28T15:29:45.992Z,16.25
2019-05-28T15:32:18.555Z,16.21
2019-05-28T15:34:50.795Z,16.23
2019-05-28T15:37:23.397Z,16.10
2019-05-28T15:39:55.650Z,16.12
2019-05-28T15:42:28.243Z,16.03
2019-05-28T15:45:00.928Z,16.06
2019-05-28T15:47:33.869Z,16.01
2019-05-28T15:50:08.946Z,15.86
2019-05-28T15:52:41.521Z,15.85
2019-05-28T15:55:14.814Z,15.74
2019-05-28T15:57:47.388Z,15.72
2019-05-28T16:00:24.644Z,15.80
2019-05-28T16:02:58.051Z,15.84
2019-05-28T16:05:30.754Z,15.80
2019-05-28T16:08:03.330Z,15.65
2019-05-28T16:10:36.025Z,15.70
2019-05-28T16:13:08.585Z,15.62
2019-05-28T16:15:41.368Z,15.51
2019-05-28T16:18:13.957Z,15.55
2019-05-28T16:20:46.938Z,15.63
2019-05-28T16:23:19.504Z,15.56
2019-05-28T16:25:52.593Z,15.54
2019-05-28T16:28:26.198Z,15.45
2019-05-28T16:31:11.717Z,15.40
2019-05-28T16:33:33.204Z,15.29
2019-05-28T16:36:05.973Z,15.29
2019-05-28T16:38:38.862Z,15.24
2019-05-28T16:41:11.535Z,15.17
2019-05-28T16:43:44.113Z,15.07
2019-05-28T16:46:16.695Z,14.99
2019-05-28T16:48:48.934Z,14.94
2019-05-28T16:51:21.537Z,14.84
2019-05-28T16:53:54.115Z,14.78
2019-05-28T16:56:26.795Z,14.72
2019-05-28T16:58:59.367Z,14.69
2019-05-28T17:01:32.054Z,14.67
2019-05-28T17:04:04.623Z,14.57
2019-05-28T17:06:38.394Z,14.60
2019-05-28T17:09:10.701Z,14.48
2019-05-28T17:11:43.384Z,14.41
2019-05-28T17:14:15.954Z,14.39
2019-05-28T17:16:49.067Z,14.41
2019-05-28T17:19:21.621Z,14.35
2019-05-28T17:21:54.309Z,14.25
2019-05-28T17:24:26.882Z,14.24
2019-05-28T17:27:00.581Z,14.30
2019-05-28T17:29:32.792Z,14.29
2019-05-28T17:32:05.430Z,14.28
2019-05-28T17:34:38.772Z,14.22
2019-05-28T17:37:12.655Z,14.22
2019-05-28T17:39:45.263Z,14.05
2019-05-28T17:42:17.887Z,14.06
2019-05-28T17:44:50.521Z,13.97
2019-05-28T17:47:23.045Z,14.03
2019-05-28T17:49:55.616Z,14.04
2019-05-28T17:52:28.295Z,13.97
2019-05-28T17:55:00.972Z,13.93
2019-05-28T17:57:33.663Z,13.95
2019-05-28T18:00:07.866Z,13.96
2019-05-28T18:02:43.784Z,13.95
2019-05-28T18:05:20.434Z,13.93
2019-05-28T18:07:54.489Z,13.99
2019-05-28T18:10:29.799Z,13.87
2019-05-28T18:13:06.240Z,13.86
2019-05-28T18:15:47.602Z,13.78
2019-05-28T18:18:16.931Z,13.79
2019-05-28T18:20:50.197Z,13.77
2019-05-28T18:23:22.976Z,13.75
2019-05-28T18:25:56.474Z,13.69
2019-05-28T18:28:31.063Z,13.70
2019-05-28T18:31:05.460Z,13.69
2019-05-28T18:33:42.829Z,13.67
2019-05-28T18:36:18.741Z,13.64
2019-05-28T18:38:52.466Z,13.65
2019-05-28T18:41:27.650Z,13.56
2019-05-28T18:44:08.064Z,13.58
2019-05-28T18:46:44.808Z,13.55
2019-05-28T18:49:20.594Z,13.43
2019-05-28T18:51:54.802Z,13.49
2019-05-28T18:54:30.225Z,13.46
2019-05-28T18:57:02.821Z,13.49
2019-05-28T18:59:36.204Z,13.49
2019-05-28T19:02:10.288Z,13.50
2019-05-28T19:04:46.990Z,13.43
2019-05-28T19:07:20.610Z,13.43
2019-05-28T19:09:54.944Z,13.33
2019-05-28T19:12:30.804Z,13.30
2019-05-28T19:15:08.278Z,13.24
2019-05-28T19:17:41.128Z,13.21
2019-05-28T19:20:20.624Z,13.17
2019-05-28T19:22:55.553Z,13.09
2019-05-28T19:25:29.399Z,13.07
2019-05-28T19:28:03.242Z,13.07
2019-05-28T19:30:39.068Z,13.03
2019-05-28T19:33:11.773Z,12.99
2019-05-28T19:35:46.340Z,12.95
2019-05-28T19:38:20.306Z,12.96
2019-05-28T19:40:52.993Z,12.99
2019-05-28T19:43:25.573Z,12.94
2019-05-28T19:45:58.740Z,12.92
2019-05-28T19:48:32.093Z,12.90
2019-05-28T19:51:04.960Z,12.90
2019-05-28T19:53:37.514Z,12.92
2019-05-28T19:56:10.203Z,12.92
2019-05-28T19:58:42.431Z,12.93
2019-05-28T20:01:15.135Z,12.93
2019-05-28T20:03:47.811Z,12.87
2019-05-28T20:06:20.551Z,12.86
2019-05-28T20:08:53.167Z,12.85
2019-05-28T20:11:25.858Z,12.85
2019-05-28T20:13:58.430Z,12.83
2019-05-28T20:16:31.123Z,12.83
2019-05-28T20:19:04.003Z,12.82
2019-05-28T20:21:36.665Z,12.78
2019-05-28T20:24:08.887Z,12.79
2019-05-28T20:26:41.512Z,12.79
2019-05-28T20:29:14.094Z,12.75
2019-05-28T20:31:46.770Z,12.73
2019-05-28T20:34:19.450Z,12.70
2019-05-28T20:36:52.128Z,12.68
2019-05-28T20:39:24.718Z,12.67
2019-05-28T20:41:57.385Z,12.68
2019-05-28T20:44:30.267Z,12.65
2019-05-28T20:47:04.971Z,12.67
2019-05-28T20:49:37.982Z,12.70
2019-05-28T20:52:10.441Z,12.73
2019-05-28T20:54:43.035Z,12.73
2019-05-28T20:57:15.712Z,12.69
2019-05-28T20:59:49.409Z,12.66
2019-05-28T21:02:22.298Z,12.64
2019-05-28T21:04:54.879Z,12.63
2019-05-28T21:07:27.861Z,12.56
2019-05-28T21:10:00.437Z,12.55
2019-05-28T21:12:43.370Z,12.53
2019-05-28T21:15:10.129Z,12.49
2019-05-28T21:17:42.778Z,12.47
2019-05-28T21:20:15.966Z,12.42
2019-05-28T21:22:49.775Z,12.42
2019-05-28T21:25:22.351Z,12.41
2019-05-28T21:27:56.453Z,12.39
2019-05-28T21:30:29.453Z,12.36
2019-05-28T21:33:02.133Z,12.31
2019-05-28T21:35:34.820Z,12.30
2019-05-28T21:38:07.485Z,12.29
2019-05-28T21:40:40.063Z,12.26
2019-05-28T21:43:12.743Z,12.25
2019-05-28T21:45:45.319Z,12.22
2019-05-28T21:48:17.997Z,12.20
2019-05-28T21:50:50.676Z,12.17
2019-05-28T21:53:22.935Z,12.16
2019-05-28T21:55:55.368Z,12.08
2019-05-28T21:58:27.997Z,12.09
2019-05-28T22:01:05.290Z,12.09
2019-05-28T22:03:39.088Z,12.10
2019-05-28T22:06:11.309Z,12.09
2019-05-28T22:08:43.937Z,12.08
2019-05-28T22:11:16.511Z,12.04
2019-05-28T22:13:49.196Z,12.03
2019-05-28T22:16:22.080Z,12.04
2019-05-28T22:18:56.100Z,12.02
2019-05-28T22:21:28.593Z,12.01
2019-05-28T22:24:02.559Z,12.00
2019-05-28T22:26:35.456Z,11.98
2019-05-28T22:29:08.656Z,11.95
2019-05-28T22:31:41.327Z,11.92
2019-05-28T22:34:14.006Z,11.93
2019-05-28T22:36:46.237Z,11.94
2019-05-28T22:39:18.853Z,11.93
2019-05-28T22:41:51.738Z,11.91
2019-05-28T22:44:24.424Z,11.90
2019-05-28T22:46:57.404Z,11.91
2019-05-28T22:49:30.079Z,11.86
2019-05-28T22:52:03.905Z,11.85
2019-05-28T22:54:36.772Z,11.84
2019-05-28T22:57:09.657Z,11.82
2019-05-28T22:59:42.639Z,11.77
2019-05-28T23:02:15.533Z,11.76
2019-05-28T23:04:48.302Z,11.74
2019-05-28T23:07:21.088Z,11.72
2019-05-28T23:09:53.973Z,11.72
2019-05-28T23:12:26.651Z,11.68
2019-05-28T23:14:59.798Z,11.71
2019-05-28T23:17:32.442Z,11.65
2019-05-28T23:20:12.983Z,11.63
2019-05-28T23:22:45.868Z,11.60
2019-05-28T23:25:18.548Z,11.57
2019-05-28T23:27:51.529Z,11.57
2019-05-28T23:30:25.410Z,11.53
2019-05-28T23:32:58.216Z,11.49
2019-05-28T23:35:30.904Z,11.47
2019-05-28T23:38:04.853Z,11.42
2019-05-28T23:40:37.551Z,11.41
2019-05-28T23:43:10.165Z,11.38
2019-05-28T23:45:43.070Z,11.35
2019-05-28T23:48:18.306Z,11.32
2019-05-28T23:50:50.046Z,11.30
2019-05-28T23:53:22.621Z,11.22
2019-05-28T23:55:55.303Z,11.16
2019-05-28T23:58:27.878Z,11.16
